createdAt,value
2024-01-22T00:00:39.464Z,3.00
2024-01-22T00:03:06.646Z,6.25
2024-01-22T00:05:33.977Z,6.50
2024-01-22T00:08:04.208Z,4.00
2024-01-22T00:10:31.265Z,3.00
2024-01-22T00:12:58.412Z,2.00
2024-01-22T00:15:25.404Z,5.75
2024-01-22T00:17:52.614Z,4.00
2024-01-22T00:20:20.052Z,3.00
2024-01-22T00:22:47.185Z,3.50
2024-01-22T00:25:14.472Z,3.00
2024-01-22T00:27:41.545Z,3.00
2024-01-22T00:30:09.238Z,2.50
2024-01-22T00:32:36.446Z,3.50
2024-01-22T00:35:03.714Z,3.50
2024-01-22T00:37:30.875Z,6.50
2024-01-22T00:39:57.847Z,8.75
2024-01-22T00:42:25.129Z,8.25
2024-01-22T00:44:56.478Z,4.75
2024-01-22T00:47:23.673Z,4.00
2024-01-22T00:49:50.863Z,5.50
2024-01-22T00:52:18.170Z,4.00
2024-01-22T00:54:45.234Z,4.25
2024-01-22T00:57:12.503Z,4.00
2024-01-22T00:59:39.607Z,5.50
2024-01-22T01:02:07.229Z,4.00
2024-01-22T01:04:34.285Z,4.75
2024-01-22T01:07:10.717Z,5.25
2024-01-22T01:09:41.886Z,3.25
2024-01-22T01:12:09.051Z,5.75
2024-01-22T01:14:36.106Z,6.00
2024-01-22T01:17:03.295Z,5.50
2024-01-22T01:19:30.363Z,4.00
2024-01-22T01:21:57.401Z,3.25
2024-01-22T01:24:24.514Z,5.25
2024-01-22T01:26:51.603Z,5.25
2024-01-22T01:29:18.611Z,4.00
2024-01-22T01:31:45.753Z,2.00
2024-01-22T01:34:12.839Z,3.00
2024-01-22T01:36:39.893Z,1.00
2024-01-22T01:39:07.195Z,1.50
2024-01-22T01:41:34.430Z,3.50
2024-01-22T01:44:01.575Z,3.00
2024-01-22T01:46:28.654Z,3.00
2024-01-22T01:48:57.373Z,2.00
2024-01-22T01:51:25.689Z,4.00
2024-01-22T01:53:54.713Z,3.00
2024-01-22T01:56:24.920Z,3.00
2024-01-22T01:58:53.012Z,2.00
2024-01-22T02:01:21.328Z,3.00
2024-01-22T02:03:49.127Z,3.25
2024-01-22T02:06:16.685Z,3.00
2024-01-22T02:08:53.885Z,4.00
2024-01-22T02:11:22.331Z,3.00
2024-01-22T02:13:49.724Z,2.50
2024-01-22T02:16:16.945Z,2.00
2024-01-22T02:18:44.261Z,2.25
2024-01-22T02:21:11.720Z,4.00
2024-01-22T02:23:39.040Z,4.00
2024-01-22T02:26:06.256Z,4.00
2024-01-22T02:28:33.500Z,4.25
2024-01-22T02:31:01.017Z,4.00
2024-01-22T02:33:28.108Z,4.25
2024-01-22T02:35:55.303Z,4.25
2024-01-22T02:38:22.357Z,5.75
2024-01-22T02:40:49.532Z,5.50
2024-01-22T02:43:16.535Z,4.00
2024-01-22T02:45:43.651Z,3.00
2024-01-22T02:48:10.723Z,4.00
2024-01-22T02:50:37.890Z,4.25
2024-01-22T02:53:05.160Z,4.00
2024-01-22T02:55:32.334Z,4.25
2024-01-22T02:57:59.343Z,4.00
2024-01-22T03:00:26.874Z,3.00
2024-01-22T03:02:54.065Z,2.00
2024-01-22T03:05:21.194Z,1.00
2024-01-22T03:07:48.257Z,2.00
2024-01-22T03:10:16.030Z,3.00
2024-01-22T03:12:43.099Z,2.00
2024-01-22T03:15:10.511Z,1.00
2024-01-22T03:17:37.826Z,2.00
2024-01-22T03:20:05.524Z,1.00
2024-01-22T03:22:32.585Z,1.00
2024-01-22T03:24:59.692Z,3.00
2024-01-22T03:27:26.804Z,4.00
2024-01-22T03:29:54.096Z,2.00
2024-01-22T03:32:21.289Z,3.25
2024-01-22T03:34:48.609Z,4.25
2024-01-22T03:37:15.733Z,3.00
2024-01-22T03:39:42.938Z,3.00
2024-01-22T03:42:09.925Z,3.75
2024-01-22T03:44:37.038Z,3.00
2024-01-22T03:47:04.045Z,2.75
2024-01-22T03:49:31.241Z,3.00
2024-01-22T03:51:58.314Z,5.25
2024-01-22T03:54:25.382Z,4.00
2024-01-22T03:56:52.478Z,4.00
2024-01-22T03:59:19.793Z,3.00
2024-01-22T04:01:49.186Z,3.00
2024-01-22T04:04:16.382Z,5.75
2024-01-22T04:06:43.612Z,5.00
2024-01-22T04:09:10.835Z,6.00
2024-01-22T04:11:37.966Z,5.00
2024-01-22T04:14:05.100Z,4.50
2024-01-22T04:16:32.084Z,7.00
2024-01-22T04:18:59.334Z,5.00
2024-01-22T04:21:26.494Z,4.00
2024-01-22T04:23:54.616Z,5.25
2024-01-22T04:26:21.719Z,4.00
2024-01-22T04:28:48.833Z,5.25
2024-01-22T04:31:15.851Z,5.25
2024-01-22T04:33:45.863Z,6.00
2024-01-22T04:36:13.182Z,4.00
2024-01-22T04:38:40.287Z,3.50
2024-01-22T04:41:07.337Z,3.00
2024-01-22T04:43:34.417Z,3.00
2024-01-22T04:46:01.381Z,4.00
2024-01-22T04:48:28.575Z,3.00
2024-01-22T04:50:55.672Z,3.00
2024-01-22T04:53:22.704Z,3.50
2024-01-22T04:55:49.773Z,3.00
2024-01-22T04:58:16.819Z,4.00
2024-01-22T05:00:43.839Z,5.00
2024-01-22T05:03:10.942Z,3.25
2024-01-22T05:05:38.744Z,1.25
2024-01-22T05:08:06.640Z,1.00
2024-01-22T05:10:33.794Z,2.50
2024-01-22T05:13:01.038Z,2.00
2024-01-22T05:15:29.341Z,3.25
2024-01-22T05:17:56.546Z,3.00
2024-01-22T05:20:23.703Z,4.00
2024-01-22T05:22:50.719Z,3.00
2024-01-22T05:25:17.720Z,2.75
2024-01-22T05:27:44.802Z,1.00
2024-01-22T05:30:12.305Z,2.50
2024-01-22T05:32:39.515Z,3.00
2024-01-22T05:35:06.922Z,3.00
2024-01-22T05:37:33.958Z,3.00
2024-01-22T05:40:01.181Z,2.00
2024-01-22T05:42:28.260Z,2.50
2024-01-22T05:44:55.306Z,2.50
2024-01-22T05:47:22.375Z,3.50
2024-01-22T05:49:49.425Z,4.00
2024-01-22T05:52:16.472Z,1.75
2024-01-22T05:54:43.434Z,3.00
2024-01-22T05:57:10.465Z,3.00
2024-01-22T05:59:39.790Z,2.25
2024-01-22T06:02:07.088Z,2.00
2024-01-22T06:04:34.150Z,2.50
2024-01-22T06:07:05.372Z,1.75
2024-01-22T06:09:33.373Z,3.00
2024-01-22T06:12:00.540Z,4.00
2024-01-22T06:14:27.626Z,2.00
2024-01-22T06:16:54.649Z,2.00
2024-01-22T06:19:21.766Z,3.25
2024-01-22T06:21:48.816Z,3.00
2024-01-22T06:24:16.301Z,3.00
2024-01-22T06:26:43.534Z,3.00
2024-01-22T06:29:10.559Z,3.25
2024-01-22T06:31:37.499Z,3.00
2024-01-22T06:34:04.853Z,3.00
2024-01-22T06:36:31.884Z,3.00
2024-01-22T06:38:59.185Z,3.75
2024-01-22T06:41:26.213Z,4.00
2024-01-22T06:43:53.317Z,3.00
2024-01-22T06:46:20.316Z,3.00
2024-01-22T06:48:47.562Z,4.00
2024-01-22T06:51:14.703Z,3.00
2024-01-22T06:53:41.918Z,3.00
2024-01-22T06:56:11.741Z,4.00
2024-01-22T06:58:38.755Z,4.00
2024-01-22T07:01:06.000Z,3.00
2024-01-22T07:03:33.373Z,4.25
2024-01-22T07:06:03.992Z,4.00
2024-01-22T07:08:34.347Z,2.25
2024-01-22T07:11:01.560Z,3.00
2024-01-22T07:13:28.618Z,4.00
2024-01-22T07:15:55.894Z,3.00
2024-01-22T07:18:23.164Z,5.50
2024-01-22T07:20:50.330Z,4.00
2024-01-22T07:23:17.441Z,3.00
2024-01-22T07:25:49.675Z,3.00
2024-01-22T07:28:16.871Z,3.75
2024-01-22T07:30:43.858Z,3.00
2024-01-22T07:33:11.102Z,6.50
2024-01-22T07:35:38.331Z,5.75
2024-01-22T07:38:05.540Z,4.50
2024-01-22T07:40:32.771Z,5.50
2024-01-22T07:43:00.314Z,5.25
2024-01-22T07:45:27.377Z,6.00
2024-01-22T07:47:54.976Z,4.25
2024-01-22T07:50:22.051Z,7.75
2024-01-22T07:52:49.203Z,11.00
2024-01-22T07:55:16.648Z,10.00
2024-01-22T07:57:43.767Z,7.00
2024-01-22T08:00:11.328Z,9.50
2024-01-22T08:02:42.021Z,11.00
2024-01-22T08:05:09.747Z,12.25
2024-01-22T08:07:39.334Z,13.00
2024-01-22T08:10:06.826Z,13.00
2024-01-22T08:12:36.408Z,13.00
2024-01-22T08:15:04.059Z,11.00
2024-01-22T08:17:33.754Z,9.50
2024-01-22T08:20:03.207Z,11.25
2024-01-22T08:22:30.383Z,11.00
2024-01-22T08:24:57.350Z,11.00
2024-01-22T08:27:24.494Z,11.25
2024-01-22T08:29:51.604Z,12.00
2024-01-22T08:32:18.744Z,8.00
2024-01-22T08:34:46.092Z,6.75
2024-01-22T08:37:13.273Z,8.00
2024-01-22T08:39:40.729Z,11.75
2024-01-22T08:42:07.818Z,13.25
2024-01-22T08:44:36.149Z,14.00
2024-01-22T08:47:03.882Z,15.00
2024-01-22T08:49:31.451Z,13.00
2024-01-22T08:51:59.160Z,11.00
2024-01-22T08:54:26.477Z,12.00
2024-01-22T08:56:53.578Z,11.50
2024-01-22T08:59:21.282Z,13.50
2024-01-22T09:01:48.739Z,15.75
2024-01-22T09:04:15.895Z,17.00
2024-01-22T09:06:43.278Z,15.00
2024-01-22T09:09:14.046Z,13.00
2024-01-22T09:11:41.418Z,13.00
2024-01-22T09:14:10.534Z,15.25
2024-01-22T09:16:37.725Z,15.00
2024-01-22T09:19:07.623Z,13.00
2024-01-22T09:21:34.960Z,15.25
2024-01-22T09:24:01.946Z,15.00
2024-01-22T09:26:29.361Z,13.50
2024-01-22T09:28:56.441Z,13.00
2024-01-22T09:31:23.650Z,13.75
2024-01-22T09:33:50.720Z,15.00
2024-01-22T09:36:18.798Z,14.00
2024-01-22T09:38:46.360Z,13.00
2024-01-22T09:41:15.121Z,14.00
2024-01-22T09:43:44.000Z,15.00
2024-01-22T09:46:11.814Z,14.00
2024-01-22T09:48:39.144Z,15.25
2024-01-22T09:51:07.124Z,15.50
2024-01-22T09:53:38.445Z,17.00
2024-01-22T09:56:09.455Z,15.00
2024-01-22T09:58:53.573Z,13.00
2024-01-22T10:01:20.938Z,12.00
2024-01-22T10:03:51.231Z,13.50
2024-01-22T10:06:18.746Z,15.00
2024-01-22T10:08:58.172Z,12.00
2024-01-22T10:11:28.280Z,11.50
2024-01-22T10:13:57.839Z,13.75
2024-01-22T10:16:31.773Z,14.00
2024-01-22T10:19:03.431Z,14.00
2024-01-22T10:21:31.524Z,13.50
2024-01-22T10:24:03.168Z,12.00
2024-01-22T10:26:33.551Z,12.00
2024-01-22T10:29:20.216Z,12.00
2024-01-22T10:32:01.433Z,12.00
2024-01-22T10:34:42.840Z,14.00
2024-01-22T10:37:11.863Z,15.00
2024-01-22T10:39:43.379Z,15.00
2024-01-22T10:42:15.096Z,13.00
2024-01-22T10:44:47.694Z,12.00
2024-01-22T10:47:16.317Z,13.00
2024-01-22T10:49:49.637Z,13.00
2024-01-22T10:52:20.187Z,13.75
2024-01-22T10:54:50.828Z,15.00
2024-01-22T10:57:30.458Z,12.00
2024-01-22T11:00:03.348Z,12.25
2024-01-22T11:02:36.587Z,15.00
2024-01-22T11:05:12.733Z,13.00
2024-01-22T11:07:41.361Z,13.00
2024-01-22T11:10:15.673Z,12.00
2024-01-22T11:12:55.158Z,11.00
2024-01-22T11:15:22.266Z,13.50
2024-01-22T11:17:49.715Z,15.00
2024-01-22T11:20:17.471Z,15.00
2024-01-22T11:23:03.550Z,15.00
2024-01-22T11:25:30.933Z,16.00
2024-01-22T11:28:11.592Z,16.00
2024-01-22T11:30:43.165Z,15.00
2024-01-22T11:33:22.927Z,12.00
2024-01-22T11:35:50.732Z,13.25
2024-01-22T11:38:46.221Z,14.00
2024-01-22T11:41:21.654Z,15.00
2024-01-22T11:43:52.077Z,14.00
2024-01-22T11:46:21.623Z,14.00
2024-01-22T11:48:57.551Z,12.00
2024-01-22T11:51:30.854Z,12.00
2024-01-22T11:53:59.154Z,13.00
2024-01-22T11:56:26.419Z,11.00
2024-01-22T11:59:04.064Z,9.00
2024-01-22T12:01:34.234Z,8.00
2024-01-22T12:04:17.379Z,8.00
2024-01-22T12:06:52.033Z,9.00
2024-01-22T12:09:21.261Z,10.00
2024-01-22T12:11:54.154Z,12.00
2024-01-22T12:14:22.230Z,13.75
2024-01-22T12:17:02.498Z,12.00
2024-01-22T12:19:32.440Z,12.50
2024-01-22T12:22:02.770Z,14.00
2024-01-22T12:24:30.034Z,14.75
2024-01-22T12:26:58.394Z,14.00
2024-01-22T12:29:27.555Z,15.00
2024-01-22T12:32:11.294Z,17.00
2024-01-22T12:34:41.306Z,15.00
2024-01-22T12:37:31.856Z,14.00
2024-01-22T12:40:13.074Z,13.00
2024-01-22T12:42:40.401Z,14.25
2024-01-22T12:45:11.389Z,14.00
2024-01-22T12:47:40.188Z,16.00
2024-01-22T12:50:09.437Z,15.50
2024-01-22T12:52:37.139Z,16.00
2024-01-22T12:55:04.414Z,14.00
2024-01-22T12:57:31.755Z,13.00
2024-01-22T12:59:59.211Z,13.00
2024-01-22T13:02:26.562Z,11.50
2024-01-22T13:04:53.649Z,15.50
2024-01-22T13:07:20.953Z,16.25
2024-01-22T13:09:48.079Z,15.00
2024-01-22T13:12:17.154Z,13.00
2024-01-22T13:14:44.352Z,11.00
2024-01-22T13:17:11.543Z,13.00
2024-01-22T13:19:41.672Z,12.00
2024-01-22T13:22:11.058Z,13.00
2024-01-22T13:24:38.128Z,12.00
2024-01-22T13:27:05.607Z,13.00
2024-01-22T13:29:33.013Z,12.00
2024-01-22T13:32:00.321Z,12.00
2024-01-22T13:34:27.536Z,12.00
2024-01-22T13:36:55.629Z,12.25
2024-01-22T13:39:23.132Z,11.00
2024-01-22T13:41:50.372Z,8.00
2024-01-22T13:44:22.557Z,5.00
2024-01-22T13:46:50.928Z,4.75
2024-01-22T13:49:18.647Z,5.50
2024-01-22T13:51:45.835Z,4.00
2024-01-22T13:54:13.539Z,6.25
2024-01-22T13:56:40.907Z,6.25
2024-01-22T13:59:08.058Z,8.00
2024-01-22T14:01:35.947Z,8.00
2024-01-22T14:04:03.213Z,7.00
2024-01-22T14:06:30.786Z,4.00
2024-01-22T14:08:58.500Z,3.75
2024-01-22T14:11:25.825Z,4.00
2024-01-22T14:13:53.742Z,3.00
2024-01-22T14:16:20.939Z,3.50
2024-01-22T14:18:48.847Z,4.00
2024-01-22T14:21:17.570Z,5.00
2024-01-22T14:23:46.086Z,3.50
2024-01-22T14:26:16.079Z,4.00
2024-01-22T14:28:44.138Z,4.00
2024-01-22T14:31:12.482Z,4.50
2024-01-22T14:33:39.748Z,5.00
2024-01-22T14:36:08.508Z,8.75
2024-01-22T14:38:36.470Z,9.00
2024-01-22T14:41:06.598Z,6.00
2024-01-22T14:43:33.857Z,7.25
2024-01-22T14:46:01.088Z,8.00
2024-01-22T14:48:28.296Z,5.25
2024-01-22T14:50:55.589Z,4.75
2024-01-22T14:53:22.753Z,5.50
2024-01-22T14:55:52.617Z,7.50
2024-01-22T14:58:19.665Z,5.25
2024-01-22T15:00:46.653Z,4.00
2024-01-22T15:03:14.021Z,4.00
2024-01-22T15:05:41.338Z,4.00
2024-01-22T15:08:08.433Z,4.00
2024-01-22T15:10:41.699Z,4.00
2024-01-22T15:13:09.423Z,3.00
2024-01-22T15:15:37.582Z,6.00
2024-01-22T15:18:08.585Z,5.00
2024-01-22T15:20:35.976Z,4.00
2024-01-22T15:23:03.311Z,4.00
2024-01-22T15:25:34.383Z,4.25
2024-01-22T15:28:01.625Z,4.50
2024-01-22T15:30:30.640Z,4.00
2024-01-22T15:32:58.045Z,6.00
2024-01-22T15:35:25.421Z,4.00
2024-01-22T15:37:54.761Z,3.00
2024-01-22T15:40:22.092Z,3.50
2024-01-22T15:42:49.324Z,3.75
2024-01-22T15:45:16.539Z,3.00
2024-01-22T15:47:44.430Z,4.00
2024-01-22T15:50:11.964Z,1.00
2024-01-22T15:52:40.157Z,3.00
2024-01-22T15:55:07.618Z,3.00
2024-01-22T15:57:39.354Z,3.00
2024-01-22T16:00:08.161Z,3.00
2024-01-22T16:02:38.688Z,2.00
2024-01-22T16:05:06.495Z,1.75
2024-01-22T16:07:33.729Z,3.00
2024-01-22T16:10:01.049Z,2.25
2024-01-22T16:12:28.869Z,3.00
2024-01-22T16:14:56.222Z,3.00
2024-01-22T16:17:24.124Z,3.00
2024-01-22T16:19:51.667Z,3.00
2024-01-22T16:22:18.945Z,3.00
2024-01-22T16:24:46.279Z,3.00
2024-01-22T16:27:15.788Z,3.00
2024-01-22T16:29:46.084Z,4.00
2024-01-22T16:32:15.938Z,3.00
2024-01-22T16:34:43.211Z,4.00
2024-01-22T16:37:10.731Z,4.25
2024-01-22T16:39:38.295Z,5.00
2024-01-22T16:42:11.470Z,6.00
2024-01-22T16:44:38.784Z,6.00
2024-01-22T16:47:24.440Z,5.50
2024-01-22T16:50:11.284Z,4.00
2024-01-22T16:52:41.599Z,4.00
2024-01-22T16:55:11.450Z,4.00
2024-01-22T16:57:39.789Z,4.50
2024-01-22T17:00:07.710Z,4.00
2024-01-22T17:02:35.152Z,4.25
2024-01-22T17:05:07.742Z,4.00
2024-01-22T17:07:37.523Z,4.00
2024-01-22T17:10:10.071Z,3.25
2024-01-22T17:12:37.175Z,4.00
2024-01-22T17:15:05.635Z,4.00
2024-01-22T17:17:32.895Z,4.00
2024-01-22T17:20:00.165Z,5.00
2024-01-22T17:22:28.926Z,3.00
2024-01-22T17:24:56.121Z,3.00
2024-01-22T17:27:23.438Z,1.00
2024-01-22T17:29:50.641Z,4.00
2024-01-22T17:32:18.193Z,4.00
2024-01-22T17:34:45.681Z,3.00
2024-01-22T17:37:13.810Z,4.00
2024-01-22T17:39:46.524Z,4.00
2024-01-22T17:42:21.698Z,3.00
2024-01-22T17:44:55.082Z,3.25
2024-01-22T17:47:22.466Z,3.00
2024-01-22T17:49:49.676Z,1.00
2024-01-22T17:52:16.992Z,1.00
2024-01-22T17:54:44.296Z,3.00
2024-01-22T17:57:11.792Z,1.00
2024-01-22T17:59:38.975Z,1.00
2024-01-22T18:02:06.871Z,1.00
2024-01-22T18:04:34.338Z,2.00
2024-01-22T18:07:01.751Z,1.00
2024-01-22T18:09:30.077Z,2.00
2024-01-22T18:11:57.396Z,1.00
2024-01-22T18:14:24.516Z,1.00
2024-01-22T18:16:51.738Z,3.00
2024-01-22T18:19:19.622Z,2.00
2024-01-22T18:21:47.069Z,1.00
2024-01-22T18:24:15.486Z,3.00
2024-01-22T18:26:42.761Z,2.00
2024-01-22T18:29:09.842Z,3.00
2024-01-22T18:31:37.102Z,3.00
2024-01-22T18:34:06.564Z,3.00
2024-01-22T18:36:39.134Z,3.00
2024-01-22T18:46:53.869Z,1.00
2024-01-22T18:49:21.259Z,1.25
2024-01-22T18:51:48.823Z,3.00
2024-01-22T18:54:16.401Z,2.75
2024-01-22T18:56:44.305Z,1.75
2024-01-22T18:59:11.483Z,3.00
2024-01-22T19:01:38.736Z,4.00
2024-01-22T19:04:06.293Z,3.00
2024-01-22T19:06:35.351Z,3.50
2024-01-22T19:09:02.924Z,3.00
2024-01-22T19:11:36.987Z,3.00
2024-01-22T19:14:19.489Z,3.00
2024-01-22T19:16:46.917Z,3.00
2024-01-22T19:19:37.965Z,3.75
2024-01-22T19:22:18.525Z,3.00
2024-01-22T19:24:45.723Z,2.00
2024-01-22T19:27:14.468Z,3.00
2024-01-22T19:29:41.578Z,4.00
2024-01-22T19:32:09.294Z,3.00
2024-01-22T19:34:40.500Z,3.00
2024-01-22T19:37:08.082Z,3.00
2024-01-22T19:39:35.157Z,3.00
2024-01-22T19:42:02.492Z,3.50
2024-01-22T19:44:29.496Z,2.75
2024-01-22T19:46:56.710Z,3.00
2024-01-22T19:49:23.692Z,4.00
2024-01-22T19:51:50.877Z,4.00
2024-01-22T19:54:18.131Z,3.00
2024-01-22T19:56:45.985Z,4.00
2024-01-22T19:59:13.314Z,4.00
2024-01-22T20:01:40.528Z,3.25
2024-01-22T20:04:08.575Z,3.00
2024-01-22T20:06:35.841Z,3.25
2024-01-22T20:09:03.021Z,5.00
2024-01-22T20:11:30.239Z,4.00
2024-01-22T20:13:57.243Z,3.00
2024-01-22T20:16:24.424Z,4.00
2024-01-22T20:18:53.819Z,4.00
2024-01-22T20:21:21.723Z,2.00
2024-01-22T20:23:56.637Z,3.00
2024-01-22T20:26:32.539Z,3.00
2024-01-22T20:28:59.593Z,4.00
2024-01-22T20:31:26.650Z,3.00
2024-01-22T20:33:53.858Z,3.00
2024-01-22T20:36:23.052Z,4.00
2024-01-22T20:38:50.202Z,3.00
2024-01-22T20:41:17.393Z,3.00
2024-01-22T20:43:44.450Z,4.00
2024-01-22T20:46:11.574Z,4.00
2024-01-22T20:48:38.950Z,3.00
2024-01-22T20:51:06.710Z,3.75
2024-01-22T20:53:33.742Z,3.00
2024-01-22T20:56:01.670Z,4.00
2024-01-22T20:58:31.104Z,4.00
2024-01-22T21:00:58.586Z,4.00
2024-01-22T21:03:25.915Z,3.00
2024-01-22T21:05:53.538Z,2.00
2024-01-22T21:08:20.703Z,4.00
2024-01-22T21:10:47.854Z,3.00
2024-01-22T21:13:15.265Z,3.00
2024-01-22T21:15:42.482Z,4.00
2024-01-22T21:18:09.742Z,4.00
2024-01-22T21:20:37.429Z,3.00
2024-01-22T21:23:04.757Z,3.75
2024-01-22T21:25:31.931Z,3.00
2024-01-22T21:27:58.893Z,3.00
2024-01-22T21:30:26.223Z,2.00
2024-01-22T21:32:54.226Z,2.50
2024-01-22T21:35:21.303Z,1.00
2024-01-22T21:37:49.541Z,3.00
2024-01-22T21:40:16.707Z,3.00
2024-01-22T21:42:43.948Z,2.50
2024-01-22T21:45:10.978Z,3.00
2024-01-22T21:47:38.024Z,3.00
2024-01-22T21:50:05.338Z,3.00
2024-01-22T21:52:32.439Z,3.00
2024-01-22T21:54:59.969Z,4.00
2024-01-22T21:57:27.220Z,4.00
2024-01-22T21:59:54.323Z,3.00
2024-01-22T22:02:21.933Z,2.25
2024-01-22T22:04:49.265Z,2.00
2024-01-22T22:07:16.407Z,1.00
2024-01-22T22:09:43.657Z,3.00
2024-01-22T22:12:11.739Z,2.00
2024-01-22T22:14:38.776Z,3.00
2024-01-22T22:17:06.274Z,2.25
2024-01-22T22:19:33.735Z,2.25
2024-01-22T22:22:00.939Z,2.00
2024-01-22T22:24:28.030Z,3.00
2024-01-22T22:26:55.168Z,3.00
2024-01-22T22:29:22.315Z,2.00
2024-01-22T22:31:49.309Z,3.00
2024-01-22T22:34:16.847Z,4.00
2024-01-22T22:36:44.163Z,3.00
2024-01-22T22:39:11.314Z,3.00
2024-01-22T22:41:41.408Z,4.00
2024-01-22T22:44:08.540Z,3.00
2024-01-22T22:46:35.526Z,4.00
2024-01-22T22:49:02.636Z,3.00
2024-01-22T22:51:29.648Z,4.00
2024-01-22T22:53:56.892Z,3.00
2024-01-22T22:56:24.004Z,4.00
2024-01-22T22:58:51.033Z,3.00
2024-01-22T23:01:18.046Z,3.00
2024-01-22T23:03:45.295Z,3.00
2024-01-22T23:06:12.734Z,4.00
2024-01-22T23:08:39.802Z,3.00
2024-01-22T23:11:06.857Z,4.00
2024-01-22T23:13:33.861Z,2.75
2024-01-22T23:16:00.878Z,3.00
2024-01-22T23:18:28.037Z,4.00
2024-01-22T23:20:55.258Z,3.00
2024-01-22T23:23:22.278Z,3.00
2024-01-22T23:25:49.327Z,2.25
2024-01-22T23:28:16.303Z,3.25
2024-01-22T23:30:43.389Z,3.00
2024-01-22T23:33:10.477Z,3.25
2024-01-22T23:35:37.587Z,3.00
2024-01-22T23:38:04.829Z,2.00
2024-01-22T23:40:31.882Z,2.75
2024-01-22T23:42:58.882Z,4.00
2024-01-22T23:46:07.250Z,4.00
2024-01-22T23:52:19.884Z,3.25
2024-01-22T23:54:46.917Z,4.25
2024-01-22T23:57:13.906Z,5.75
2024-01-22T23:59:42.230Z,4.00
